sensor_id;sensor_type;location;lat;lon;timestamp;P1;durP1;ratioP1;P2;durP2;ratioP2
19551;SDS011;9921;47.186;9.778;2023-10-13T00:01:54;0.00;;;0.00;;
19551;SDS011;9921;47.186;9.778;2023-10-13T00:04:23;0.00;;;0.00;;
19551;SDS011;9921;47.186;9.778;2023-10-13T00:06:50;0.00;;;0.00;;
19551;SDS011;9921;47.186;9.778;2023-10-13T00:09:18;0.00;;;0.00;;
19551;SDS011;9921;47.186;9.778;2023-10-13T00:11:50;0.00;;;0.00;;
19551;SDS011;9921;47.186;9.778;2023-10-13T00:14:17;0.00;;;0.00;;
19551;SDS011;9921;47.186;9.778;2023-10-13T00:16:47;0.00;;;0.00;;
19551;SDS011;9921;47.186;9.778;2023-10-13T00:19:28;0.00;;;0.00;;
19551;SDS011;9921;47.186;9.778;2023-10-13T00:22:02;0.00;;;0.00;;
19551;SDS011;9921;47.186;9.778;2023-10-13T00:24:34;0.00;;;0.00;;
19551;SDS011;9921;47.186;9.778;2023-10-13T00:27:07;0.00;;;0.00;;
19551;SDS011;9921;47.186;9.778;2023-10-13T00:29:49;0.00;;;0.00;;
19551;SDS011;9921;47.186;9.778;2023-10-13T00:32:17;0.00;;;0.00;;
19551;SDS011;9921;47.186;9.778;2023-10-13T00:34:52;0.00;;;0.00;;
19551;SDS011;9921;47.186;9.778;2023-10-13T00:37:21;0.00;;;0.00;;
19551;SDS011;9921;47.186;9.778;2023-10-13T00:39:53;0.00;;;0.00;;
19551;SDS011;9921;47.186;9.778;2023-10-13T00:42:22;0.00;;;0.00;;
19551;SDS011;9921;47.186;9.778;2023-10-13T00:45:10;0.00;;;0.00;;
19551;SDS011;9921;47.186;9.778;2023-10-13T00:47:43;0.00;;;0.00;;
19551;SDS011;9921;47.186;9.778;2023-10-13T00:50:14;0.00;;;0.00;;
19551;SDS011;9921;47.186;9.778;2023-10-13T00:52:42;0.00;;;0.00;;
19551;SDS011;9921;47.186;9.778;2023-10-13T00:55:15;0.00;;;0.00;;
19551;SDS011;9921;47.186;9.778;2023-10-13T00:57:43;0.00;;;0.00;;
19551;SDS011;9921;47.186;9.778;2023-10-13T01:00:12;0.00;;;0.00;;
19551;SDS011;9921;47.186;9.778;2023-10-13T01:02:45;0.00;;;0.00;;
19551;SDS011;9921;47.186;9.778;2023-10-13T01:05:20;0.00;;;0.00;;
19551;SDS011;9921;47.186;9.778;2023-10-13T01:07:47;0.00;;;0.00;;
19551;SDS011;9921;47.186;9.778;2023-10-13T01:10:18;0.00;;;0.00;;
19551;SDS011;9921;47.186;9.778;2023-10-13T01:12:44;0.00;;;0.00;;
19551;SDS011;9921;47.186;9.778;2023-10-13T01:15:12;0.00;;;0.00;;
19551;SDS011;9921;47.186;9.778;2023-10-13T01:17:42;0.00;;;0.00;;
19551;SDS011;9921;47.186;9.778;2023-10-13T01:20:12;0.00;;;0.00;;
19551;SDS011;9921;47.186;9.778;2023-10-13T01:22:44;0.00;;;0.00;;
19551;SDS011;9921;47.186;9.778;2023-10-13T01:25:16;0.00;;;0.00;;
19551;SDS011;9921;47.186;9.778;2023-10-13T01:27:44;0.00;;;0.00;;
19551;SDS011;9921;47.186;9.778;2023-10-13T01:30:14;0.00;;;0.00;;
19551;SDS011;9921;47.186;9.778;2023-10-13T01:32:41;0.00;;;0.00;;
19551;SDS011;9921;47.186;9.778;2023-10-13T01:35:11;0.00;;;0.00;;
19551;SDS011;9921;47.186;9.778;2023-10-13T01:37:37;0.00;;;0.00;;
19551;SDS011;9921;47.186;9.778;2023-10-13T01:40:04;0.00;;;0.00;;
19551;SDS011;9921;47.186;9.778;2023-10-13T01:42:32;0.00;;;0.00;;
19551;SDS011;9921;47.186;9.778;2023-10-13T01:45:02;0.00;;;0.00;;
19551;SDS011;9921;47.186;9.778;2023-10-13T01:47:31;0.00;;;0.00;;
19551;SDS011;9921;47.186;9.778;2023-10-13T01:49:58;0.00;;;0.00;;
19551;SDS011;9921;47.186;9.778;2023-10-13T01:52:31;0.00;;;0.00;;
19551;SDS011;9921;47.186;9.778;2023-10-13T01:54:57;0.00;;;0.00;;
19551;SDS011;9921;47.186;9.778;2023-10-13T01:57:26;0.00;;;0.00;;
19551;SDS011;9921;47.186;9.778;2023-10-13T01:59:54;0.00;;;0.00;;
19551;SDS011;9921;47.186;9.778;2023-10-13T02:02:21;0.00;;;0.00;;
19551;SDS011;9921;47.186;9.778;2023-10-13T02:04:54;0.00;;;0.00;;
19551;SDS011;9921;47.186;9.778;2023-10-13T02:07:25;0.00;;;0.00;;
19551;SDS011;9921;47.186;9.778;2023-10-13T02:09:54;0.00;;;0.00;;
19551;SDS011;9921;47.186;9.778;2023-10-13T02:12:21;0.00;;;0.00;;
19551;SDS011;9921;47.186;9.778;2023-10-13T02:14:52;0.00;;;0.00;;
19551;SDS011;9921;47.186;9.778;2023-10-13T02:17:21;0.00;;;0.00;;
19551;SDS011;9921;47.186;9.778;2023-10-13T02:19:48;0.00;;;0.00;;
19551;SDS011;9921;47.186;9.778;2023-10-13T02:22:19;0.00;;;0.00;;
19551;SDS011;9921;47.186;9.778;2023-10-13T02:24:50;0.00;;;0.00;;
19551;SDS011;9921;47.186;9.778;2023-10-13T02:27:17;0.00;;;0.00;;
19551;SDS011;9921;47.186;9.778;2023-10-13T02:29:48;0.00;;;0.00;;
19551;SDS011;9921;47.186;9.778;2023-10-13T02:32:24;0.00;;;0.00;;
19551;SDS011;9921;47.186;9.778;2023-10-13T02:34:51;0.00;;;0.00;;
19551;SDS011;9921;47.186;9.778;2023-10-13T02:37:19;0.00;;;0.00;;
19551;SDS011;9921;47.186;9.778;2023-10-13T02:39:45;0.00;;;0.00;;
19551;SDS011;9921;47.186;9.778;2023-10-13T02:42:12;0.00;;;0.00;;
19551;SDS011;9921;47.186;9.778;2023-10-13T02:44:48;0.00;;;0.00;;
19551;SDS011;9921;47.186;9.778;2023-10-13T02:47:16;0.00;;;0.00;;
19551;SDS011;9921;47.186;9.778;2023-10-13T02:49:45;0.00;;;0.00;;
19551;SDS011;9921;47.186;9.778;2023-10-13T02:52:12;0.00;;;0.00;;
19551;SDS011;9921;47.186;9.778;2023-10-13T02:54:38;0.00;;;0.00;;
19551;SDS011;9921;47.186;9.778;2023-10-13T02:57:12;0.00;;;0.00;;
19551;SDS011;9921;47.186;9.778;2023-10-13T02:59:37;0.00;;;0.00;;
19551;SDS011;9921;47.186;9.778;2023-10-13T03:02:11;0.00;;;0.00;;
19551;SDS011;9921;47.186;9.778;2023-10-13T03:04:50;0.00;;;0.00;;
19551;SDS011;9921;47.186;9.778;2023-10-13T03:07:24;0.00;;;0.00;;
19551;SDS011;9921;47.186;9.778;2023-10-13T03:09:53;0.00;;;0.00;;
19551;SDS011;9921;47.186;9.778;2023-10-13T03:12:23;0.00;;;0.00;;
19551;SDS011;9921;47.186;9.778;2023-10-13T03:14:49;0.00;;;0.00;;
19551;SDS011;9921;47.186;9.778;2023-10-13T03:17:21;0.00;;;0.00;;
19551;SDS011;9921;47.186;9.778;2023-10-13T03:19:59;0.00;;;0.00;;
19551;SDS011;9921;47.186;9.778;2023-10-13T03:22:26;0.00;;;0.00;;
19551;SDS011;9921;47.186;9.778;2023-10-13T03:24:56;0.00;;;0.00;;
19551;SDS011;9921;47.186;9.778;2023-10-13T03:27:26;0.00;;;0.00;;
19551;SDS011;9921;47.186;9.778;2023-10-13T03:30:05;0.00;;;0.00;;
19551;SDS011;9921;47.186;9.778;2023-10-13T03:32:39;0.00;;;0.00;;
19551;SDS011;9921;47.186;9.778;2023-10-13T03:35:10;0.00;;;0.00;;
19551;SDS011;9921;47.186;9.778;2023-10-13T03:37:38;0.00;;;0.00;;
19551;SDS011;9921;47.186;9.778;2023-10-13T03:40:06;0.00;;;0.00;;
19551;SDS011;9921;47.186;9.778;2023-10-13T03:42:54;0.00;;;0.00;;
19551;SDS011;9921;47.186;9.778;2023-10-13T03:45:29;0.00;;;0.00;;
19551;SDS011;9921;47.186;9.778;2023-10-13T03:48:02;0.00;;;0.00;;
19551;SDS011;9921;47.186;9.778;2023-10-13T03:50:35;0.00;;;0.00;;
19551;SDS011;9921;47.186;9.778;2023-10-13T03:53:03;0.00;;;0.00;;
19551;SDS011;9921;47.186;9.778;2023-10-13T03:55:31;0.00;;;0.00;;
19551;SDS011;9921;47.186;9.778;2023-10-13T03:58:00;0.00;;;0.00;;
19551;SDS011;9921;47.186;9.778;2023-10-13T04:00:29;0.00;;;0.00;;
19551;SDS011;9921;47.186;9.778;2023-10-13T04:02:57;0.00;;;0.00;;
19551;SDS011;9921;47.186;9.778;2023-10-13T04:05:35;0.00;;;0.00;;
19551;SDS011;9921;47.186;9.778;2023-10-13T04:08:06;0.00;;;0.00;;
19551;SDS011;9921;47.186;9.778;2023-10-13T04:10:51;0.00;;;0.00;;
19551;SDS011;9921;47.186;9.778;2023-10-13T04:13:37;0.00;;;0.00;;
19551;SDS011;9921;47.186;9.778;2023-10-13T04:16:37;0.00;;;0.00;;
19551;SDS011;9921;47.186;9.778;2023-10-13T04:19:05;0.00;;;0.00;;
19551;SDS011;9921;47.186;9.778;2023-10-13T04:21:37;0.00;;;0.00;;
19551;SDS011;9921;47.186;9.778;2023-10-13T04:24:20;0.00;;;0.00;;
19551;SDS011;9921;47.186;9.778;2023-10-13T04:27:02;0.00;;;0.00;;
19551;SDS011;9921;47.186;9.778;2023-10-13T04:29:54;0.00;;;0.00;;
19551;SDS011;9921;47.186;9.778;2023-10-13T04:32:35;0.00;;;0.00;;
19551;SDS011;9921;47.186;9.778;2023-10-13T04:35:06;0.00;;;0.00;;
19551;SDS011;9921;47.186;9.778;2023-10-13T04:37:44;0.00;;;0.00;;
19551;SDS011;9921;47.186;9.778;2023-10-13T04:40:19;0.00;;;0.00;;
19551;SDS011;9921;47.186;9.778;2023-10-13T04:42:49;0.00;;;0.00;;
19551;SDS011;9921;47.186;9.778;2023-10-13T04:45:19;0.00;;;0.00;;
19551;SDS011;9921;47.186;9.778;2023-10-13T04:48:03;0.00;;;0.00;;
19551;SDS011;9921;47.186;9.778;2023-10-13T04:50:54;0.00;;;0.00;;
19551;SDS011;9921;47.186;9.778;2023-10-13T04:53:47;0.00;;;0.00;;
19551;SDS011;9921;47.186;9.778;2023-10-13T04:56:25;0.00;;;0.00;;
19551;SDS011;9921;47.186;9.778;2023-10-13T04:59:32;0.00;;;0.00;;
19551;SDS011;9921;47.186;9.778;2023-10-13T05:02:23;0.00;;;0.00;;
19551;SDS011;9921;47.186;9.778;2023-10-13T05:05:07;0.00;;;0.00;;
19551;SDS011;9921;47.186;9.778;2023-10-13T05:08:07;0.00;;;0.00;;
19551;SDS011;9921;47.186;9.778;2023-10-13T05:10:52;0.00;;;0.00;;
19551;SDS011;9921;47.186;9.778;2023-10-13T05:13:36;0.00;;;0.00;;
19551;SDS011;9921;47.186;9.778;2023-10-13T05:16:21;0.00;;;0.00;;
19551;SDS011;9921;47.186;9.778;2023-10-13T05:19:06;0.00;;;0.00;;
19551;SDS011;9921;47.186;9.778;2023-10-13T05:21:50;0.00;;;0.00;;
19551;SDS011;9921;47.186;9.778;2023-10-13T05:24:34;0.00;;;0.00;;
19551;SDS011;9921;47.186;9.778;2023-10-13T05:27:18;0.00;;;0.00;;
19551;SDS011;9921;47.186;9.778;2023-10-13T05:30:02;0.00;;;0.00;;
19551;SDS011;9921;47.186;9.778;2023-10-13T05:32:48;0.00;;;0.00;;
19551;SDS011;9921;47.186;9.778;2023-10-13T05:35:32;0.00;;;0.00;;
19551;SDS011;9921;47.186;9.778;2023-10-13T05:38:16;0.00;;;0.00;;
19551;SDS011;9921;47.186;9.778;2023-10-13T05:41:01;0.00;;;0.00;;
19551;SDS011;9921;47.186;9.778;2023-10-13T05:43:46;0.00;;;0.00;;
19551;SDS011;9921;47.186;9.778;2023-10-13T05:46:31;0.00;;;0.00;;
19551;SDS011;9921;47.186;9.778;2023-10-13T05:49:19;0.00;;;0.00;;
19551;SDS011;9921;47.186;9.778;2023-10-13T05:52:00;0.00;;;0.00;;
19551;SDS011;9921;47.186;9.778;2023-10-13T05:54:44;0.00;;;0.00;;
19551;SDS011;9921;47.186;9.778;2023-10-13T05:57:29;0.00;;;0.00;;
19551;SDS011;9921;47.186;9.778;2023-10-13T06:00:13;0.00;;;0.00;;
19551;SDS011;9921;47.186;9.778;2023-10-13T06:02:58;0.00;;;0.00;;
19551;SDS011;9921;47.186;9.778;2023-10-13T06:05:44;0.00;;;0.00;;
19551;SDS011;9921;47.186;9.778;2023-10-13T06:08:28;0.00;;;0.00;;
19551;SDS011;9921;47.186;9.778;2023-10-13T06:11:12;0.00;;;0.00;;
19551;SDS011;9921;47.186;9.778;2023-10-13T06:13:56;0.00;;;0.00;;
19551;SDS011;9921;47.186;9.778;2023-10-13T06:16:40;0.00;;;0.00;;
19551;SDS011;9921;47.186;9.778;2023-10-13T06:19:33;0.00;;;0.00;;
19551;SDS011;9921;47.186;9.778;2023-10-13T06:22:19;0.00;;;0.00;;
19551;SDS011;9921;47.186;9.778;2023-10-13T06:25:03;0.00;;;0.00;;
19551;SDS011;9921;47.186;9.778;2023-10-13T06:27:48;0.00;;;0.00;;
19551;SDS011;9921;47.186;9.778;2023-10-13T06:30:32;0.00;;;0.00;;
19551;SDS011;9921;47.186;9.778;2023-10-13T06:32:59;0.00;;;0.00;;
19551;SDS011;9921;47.186;9.778;2023-10-13T06:35:26;0.00;;;0.00;;
19551;SDS011;9921;47.186;9.778;2023-10-13T06:37:55;0.00;;;0.00;;
19551;SDS011;9921;47.186;9.778;2023-10-13T06:40:25;0.00;;;0.00;;
19551;SDS011;9921;47.186;9.778;2023-10-13T06:42:58;0.00;;;0.00;;
19551;SDS011;9921;47.186;9.778;2023-10-13T06:45:38;0.00;;;0.00;;
19551;SDS011;9921;47.186;9.778;2023-10-13T06:48:05;0.00;;;0.00;;
19551;SDS011;9921;47.186;9.778;2023-10-13T06:50:35;0.00;;;0.00;;
19551;SDS011;9921;47.186;9.778;2023-10-13T06:53:08;0.00;;;0.00;;
19551;SDS011;9921;47.186;9.778;2023-10-13T06:55:37;0.00;;;0.00;;
19551;SDS011;9921;47.186;9.778;2023-10-13T06:58:05;0.00;;;0.00;;
19551;SDS011;9921;47.186;9.778;2023-10-13T07:00:32;0.00;;;0.00;;
19551;SDS011;9921;47.186;9.778;2023-10-13T07:02:59;0.00;;;0.00;;
19551;SDS011;9921;47.186;9.778;2023-10-13T07:05:33;0.00;;;0.00;;
19551;SDS011;9921;47.186;9.778;2023-10-13T07:08:03;0.00;;;0.00;;
19551;SDS011;9921;47.186;9.778;2023-10-13T07:10:32;0.00;;;0.00;;
19551;SDS011;9921;47.186;9.778;2023-10-13T07:13:10;0.00;;;0.00;;
19551;SDS011;9921;47.186;9.778;2023-10-13T07:15:38;0.00;;;0.00;;
19551;SDS011;9921;47.186;9.778;2023-10-13T07:18:10;0.00;;;0.00;;
19551;SDS011;9921;47.186;9.778;2023-10-13T07:20:38;0.00;;;0.00;;
19551;SDS011;9921;47.186;9.778;2023-10-13T07:23:09;0.00;;;0.00;;
19551;SDS011;9921;47.186;9.778;2023-10-13T07:25:38;0.00;;;0.00;;
19551;SDS011;9921;47.186;9.778;2023-10-13T07:28:06;0.00;;;0.00;;
19551;SDS011;9921;47.186;9.778;2023-10-13T07:30:34;0.00;;;0.00;;
19551;SDS011;9921;47.186;9.778;2023-10-13T07:33:07;0.00;;;0.00;;
19551;SDS011;9921;47.186;9.778;2023-10-13T07:35:38;0.00;;;0.00;;
19551;SDS011;9921;47.186;9.778;2023-10-13T07:38:06;0.00;;;0.00;;
19551;SDS011;9921;47.186;9.778;2023-10-13T07:40:34;0.00;;;0.00;;
19551;SDS011;9921;47.186;9.778;2023-10-13T07:43:08;0.00;;;0.00;;
19551;SDS011;9921;47.186;9.778;2023-10-13T07:45:36;0.00;;;0.00;;
19551;SDS011;9921;47.186;9.778;2023-10-13T07:48:03;0.00;;;0.00;;
19551;SDS011;9921;47.186;9.778;2023-10-13T07:50:37;0.00;;;0.00;;
19551;SDS011;9921;47.186;9.778;2023-10-13T07:53:06;0.00;;;0.00;;
19551;SDS011;9921;47.186;9.778;2023-10-13T07:55:47;0.00;;;0.00;;
19551;SDS011;9921;47.186;9.778;2023-10-13T07:58:21;0.00;;;0.00;;
19551;SDS011;9921;47.186;9.778;2023-10-13T08:00:50;0.00;;;0.00;;
19551;SDS011;9921;47.186;9.778;2023-10-13T08:03:31;0.00;;;0.00;;
19551;SDS011;9921;47.186;9.778;2023-10-13T08:06:00;0.00;;;0.00;;
19551;SDS011;9921;47.186;9.778;2023-10-13T08:08:31;0.00;;;0.00;;
19551;SDS011;9921;47.186;9.778;2023-10-13T08:11:04;0.00;;;0.00;;
19551;SDS011;9921;47.186;9.778;2023-10-13T08:13:38;0.00;;;0.00;;
19551;SDS011;9921;47.186;9.778;2023-10-13T08:16:11;0.00;;;0.00;;
19551;SDS011;9921;47.186;9.778;2023-10-13T08:18:45;0.00;;;0.00;;
19551;SDS011;9921;47.186;9.778;2023-10-13T08:21:14;0.00;;;0.00;;
19551;SDS011;9921;47.186;9.778;2023-10-13T08:23:45;0.00;;;0.00;;
19551;SDS011;9921;47.186;9.778;2023-10-13T08:26:27;0.00;;;0.00;;
19551;SDS011;9921;47.186;9.778;2023-10-13T08:29:19;0.00;;;0.00;;
19551;SDS011;9921;47.186;9.778;2023-10-13T08:32:04;0.00;;;0.00;;
19551;SDS011;9921;47.186;9.778;2023-10-13T08:34:46;0.00;;;0.00;;
19551;SDS011;9921;47.186;9.778;2023-10-13T08:37:33;0.00;;;0.00;;
19551;SDS011;9921;47.186;9.778;2023-10-13T08:40:11;0.00;;;0.00;;
19551;SDS011;9921;47.186;9.778;2023-10-13T08:43:02;0.00;;;0.00;;
19551;SDS011;9921;47.186;9.778;2023-10-13T08:45:39;0.00;;;0.00;;
19551;SDS011;9921;47.186;9.778;2023-10-13T08:48:25;0.10;;;0.10;;
19551;SDS011;9921;47.186;9.778;2023-10-13T08:50:57;0.08;;;0.08;;
19551;SDS011;9921;47.186;9.778;2023-10-13T08:53:34;0.10;;;0.10;;
19551;SDS011;9921;47.186;9.778;2023-10-13T08:56:10;0.10;;;0.10;;
19551;SDS011;9921;47.186;9.778;2023-10-13T08:58:41;0.20;;;0.20;;
19551;SDS011;9921;47.186;9.778;2023-10-13T09:01:33;0.10;;;0.10;;
19551;SDS011;9921;47.186;9.778;2023-10-13T09:04:00;0.10;;;0.10;;
19551;SDS011;9921;47.186;9.778;2023-10-13T09:06:41;0.10;;;0.10;;
19551;SDS011;9921;47.186;9.778;2023-10-13T09:09:12;0.20;;;0.20;;
19551;SDS011;9921;47.186;9.778;2023-10-13T09:11:52;0.20;;;0.20;;
19551;SDS011;9921;47.186;9.778;2023-10-13T09:14:32;0.20;;;0.20;;
19551;SDS011;9921;47.186;9.778;2023-10-13T09:17:02;0.20;;;0.20;;
19551;SDS011;9921;47.186;9.778;2023-10-13T09:19:59;0.20;;;0.20;;
19551;SDS011;9921;47.186;9.778;2023-10-13T09:22:47;0.30;;;0.30;;
19551;SDS011;9921;47.186;9.778;2023-10-13T09:25:21;0.30;;;0.30;;
19551;SDS011;9921;47.186;9.778;2023-10-13T09:27:49;0.30;;;0.30;;
19551;SDS011;9921;47.186;9.778;2023-10-13T09:30:18;0.30;;;0.30;;
19551;SDS011;9921;47.186;9.778;2023-10-13T09:32:47;0.30;;;0.30;;
19551;SDS011;9921;47.186;9.778;2023-10-13T09:35:26;0.30;;;0.30;;
19551;SDS011;9921;47.186;9.778;2023-10-13T09:37:56;0.30;;;0.30;;
19551;SDS011;9921;47.186;9.778;2023-10-13T09:40:24;0.40;;;0.40;;
19551;SDS011;9921;47.186;9.778;2023-10-13T09:42:53;0.40;;;0.40;;
19551;SDS011;9921;47.186;9.778;2023-10-13T09:45:23;0.38;;;0.38;;
19551;SDS011;9921;47.186;9.778;2023-10-13T09:47:57;0.30;;;0.30;;
19551;SDS011;9921;47.186;9.778;2023-10-13T09:50:31;0.40;;;0.40;;
19551;SDS011;9921;47.186;9.778;2023-10-13T09:53:05;0.30;;;0.30;;
19551;SDS011;9921;47.186;9.778;2023-10-13T09:55:35;0.30;;;0.30;;
19551;SDS011;9921;47.186;9.778;2023-10-13T09:58:09;0.30;;;0.30;;
19551;SDS011;9921;47.186;9.778;2023-10-13T10:00:42;0.30;;;0.30;;
19551;SDS011;9921;47.186;9.778;2023-10-13T10:03:14;0.30;;;0.30;;
19551;SDS011;9921;47.186;9.778;2023-10-13T10:05:55;0.30;;;0.30;;
19551;SDS011;9921;47.186;9.778;2023-10-13T10:08:28;0.30;;;0.30;;
19551;SDS011;9921;47.186;9.778;2023-10-13T10:11:00;0.30;;;0.30;;
19551;SDS011;9921;47.186;9.778;2023-10-13T10:13:35;0.30;;;0.30;;
19551;SDS011;9921;47.186;9.778;2023-10-13T10:16:10;0.38;;;0.38;;
19551;SDS011;9921;47.186;9.778;2023-10-13T10:18:46;0.40;;;0.40;;
19551;SDS011;9921;47.186;9.778;2023-10-13T10:21:14;0.40;;;0.40;;
19551;SDS011;9921;47.186;9.778;2023-10-13T10:23:41;0.40;;;0.40;;
19551;SDS011;9921;47.186;9.778;2023-10-13T10:26:19;0.40;;;0.40;;
19551;SDS011;9921;47.186;9.778;2023-10-13T10:28:46;0.40;;;0.40;;
19551;SDS011;9921;47.186;9.778;2023-10-13T10:31:13;0.40;;;0.40;;
19551;SDS011;9921;47.186;9.778;2023-10-13T10:33:42;0.40;;;0.40;;
19551;SDS011;9921;47.186;9.778;2023-10-13T10:36:13;0.40;;;0.40;;
19551;SDS011;9921;47.186;9.778;2023-10-13T10:38:51;0.40;;;0.40;;
19551;SDS011;9921;47.186;9.778;2023-10-13T10:41:25;0.40;;;0.40;;
19551;SDS011;9921;47.186;9.778;2023-10-13T10:44:09;0.40;;;0.40;;
19551;SDS011;9921;47.186;9.778;2023-10-13T10:46:40;0.30;;;0.30;;
19551;SDS011;9921;47.186;9.778;2023-10-13T10:49:07;0.30;;;0.30;;
19551;SDS011;9921;47.186;9.778;2023-10-13T10:51:36;0.30;;;0.30;;
19551;SDS011;9921;47.186;9.778;2023-10-13T10:54:17;0.40;;;0.40;;
19551;SDS011;9921;47.186;9.778;2023-10-13T10:56:45;0.40;;;0.40;;
19551;SDS011;9921;47.186;9.778;2023-10-13T10:59:17;0.40;;;0.40;;
19551;SDS011;9921;47.186;9.778;2023-10-13T11:01:46;0.40;;;0.40;;
19551;SDS011;9921;47.186;9.778;2023-10-13T11:04:16;0.40;;;0.40;;
19551;SDS011;9921;47.186;9.778;2023-10-13T11:06:51;0.40;;;0.40;;
19551;SDS011;9921;47.186;9.778;2023-10-13T11:09:23;0.50;;;0.50;;
19551;SDS011;9921;47.186;9.778;2023-10-13T11:11:57;0.50;;;0.50;;
19551;SDS011;9921;47.186;9.778;2023-10-13T11:14:39;0.50;;;0.50;;
19551;SDS011;9921;47.186;9.778;2023-10-13T11:17:06;0.60;;;0.60;;
19551;SDS011;9921;47.186;9.778;2023-10-13T11:19:46;0.50;;;0.50;;
19551;SDS011;9921;47.186;9.778;2023-10-13T11:22:15;0.50;;;0.50;;
19551;SDS011;9921;47.186;9.778;2023-10-13T11:24:57;0.60;;;0.60;;
19551;SDS011;9921;47.186;9.778;2023-10-13T11:27:28;0.65;;;0.65;;
19551;SDS011;9921;47.186;9.778;2023-10-13T11:30:09;0.73;;;0.73;;
19551;SDS011;9921;47.186;9.778;2023-10-13T11:32:39;0.70;;;0.70;;
19551;SDS011;9921;47.186;9.778;2023-10-13T11:35:08;0.60;;;0.60;;
19551;SDS011;9921;47.186;9.778;2023-10-13T11:37:46;0.70;;;0.70;;
19551;SDS011;9921;47.186;9.778;2023-10-13T11:40:21;0.60;;;0.60;;
19551;SDS011;9921;47.186;9.778;2023-10-13T11:43:08;0.70;;;0.70;;
19551;SDS011;9921;47.186;9.778;2023-10-13T11:45:39;0.70;;;0.70;;
19551;SDS011;9921;47.186;9.778;2023-10-13T11:48:19;0.80;;;0.80;;
19551;SDS011;9921;47.186;9.778;2023-10-13T11:50:59;0.70;;;0.70;;
19551;SDS011;9921;47.186;9.778;2023-10-13T11:53:32;0.80;;;0.80;;
19551;SDS011;9921;47.186;9.778;2023-10-13T11:56:00;0.80;;;0.80;;
19551;SDS011;9921;47.186;9.778;2023-10-13T11:58:27;0.70;;;0.70;;
19551;SDS011;9921;47.186;9.778;2023-10-13T12:00:54;0.70;;;0.70;;
19551;SDS011;9921;47.186;9.778;2023-10-13T12:03:45;0.60;;;0.60;;
19551;SDS011;9921;47.186;9.778;2023-10-13T12:06:30;0.65;;;0.65;;
19551;SDS011;9921;47.186;9.778;2023-10-13T12:09:13;0.60;;;0.60;;
19551;SDS011;9921;47.186;9.778;2023-10-13T12:12:05;0.60;;;0.60;;
19551;SDS011;9921;47.186;9.778;2023-10-13T12:14:34;0.60;;;0.60;;
19551;SDS011;9921;47.186;9.778;2023-10-13T12:17:03;0.60;;;0.60;;
19551;SDS011;9921;47.186;9.778;2023-10-13T12:19:35;0.60;;;0.60;;
19551;SDS011;9921;47.186;9.778;2023-10-13T12:22:04;0.70;;;0.70;;
19551;SDS011;9921;47.186;9.778;2023-10-13T12:24:35;0.80;;;0.80;;
19551;SDS011;9921;47.186;9.778;2023-10-13T12:27:07;0.65;;;0.65;;
19551;SDS011;9921;47.186;9.778;2023-10-13T12:29:45;0.80;;;0.80;;
19551;SDS011;9921;47.186;9.778;2023-10-13T12:32:12;0.80;;;0.80;;
19551;SDS011;9921;47.186;9.778;2023-10-13T12:34:40;0.80;;;0.80;;
19551;SDS011;9921;47.186;9.778;2023-10-13T12:37:25;0.60;;;0.60;;
19551;SDS011;9921;47.186;9.778;2023-10-13T12:40:17;0.60;;;0.60;;
19551;SDS011;9921;47.186;9.778;2023-10-13T12:43:03;0.70;;;0.70;;
19551;SDS011;9921;47.186;9.778;2023-10-13T12:45:48;0.77;;;0.77;;
19551;SDS011;9921;47.186;9.778;2023-10-13T12:48:34;0.70;;;0.70;;
19551;SDS011;9921;47.186;9.778;2023-10-13T12:51:20;0.77;;;0.77;;
19551;SDS011;9921;47.186;9.778;2023-10-13T12:54:05;0.80;;;0.80;;
19551;SDS011;9921;47.186;9.778;2023-10-13T12:56:40;0.80;;;0.80;;
19551;SDS011;9921;47.186;9.778;2023-10-13T12:59:07;0.80;;;0.80;;
19551;SDS011;9921;47.186;9.778;2023-10-13T13:01:38;0.90;;;0.90;;
19551;SDS011;9921;47.186;9.778;2023-10-13T13:04:08;1.00;;;1.00;;
19551;SDS011;9921;47.186;9.778;2023-10-13T13:06:43;1.10;;;1.10;;
19551;SDS011;9921;47.186;9.778;2023-10-13T13:09:10;0.90;;;0.90;;
19551;SDS011;9921;47.186;9.778;2023-10-13T13:11:38;1.10;;;1.10;;
19551;SDS011;9921;47.186;9.778;2023-10-13T13:14:07;1.20;;;1.20;;
19551;SDS011;9921;47.186;9.778;2023-10-13T13:16:35;1.00;;;1.00;;
19551;SDS011;9921;47.186;9.778;2023-10-13T13:19:04;1.27;;;1.27;;
19551;SDS011;9921;47.186;9.778;2023-10-13T13:21:36;1.45;;;1.45;;
19551;SDS011;9921;47.186;9.778;2023-10-13T13:24:03;1.10;;;1.10;;
19551;SDS011;9921;47.186;9.778;2023-10-13T13:26:35;1.20;;;1.20;;
19551;SDS011;9921;47.186;9.778;2023-10-13T13:29:05;1.60;;;1.60;;
19551;SDS011;9921;47.186;9.778;2023-10-13T13:31:35;1.45;;;1.45;;
19551;SDS011;9921;47.186;9.778;2023-10-13T13:34:06;1.50;;;1.50;;
19551;SDS011;9921;47.186;9.778;2023-10-13T13:36:35;1.33;;;1.33;;
19551;SDS011;9921;47.186;9.778;2023-10-13T13:39:02;1.50;;;1.50;;
19551;SDS011;9921;47.186;9.778;2023-10-13T13:41:31;1.70;;;1.70;;
19551;SDS011;9921;47.186;9.778;2023-10-13T13:43:58;1.20;;;1.20;;
19551;SDS011;9921;47.186;9.778;2023-10-13T13:46:39;1.30;;;1.30;;
19551;SDS011;9921;47.186;9.778;2023-10-13T13:49:07;1.40;;;1.40;;
19551;SDS011;9921;47.186;9.778;2023-10-13T13:51:43;1.20;;;1.20;;
19551;SDS011;9921;47.186;9.778;2023-10-13T13:54:16;1.20;;;1.20;;
19551;SDS011;9921;47.186;9.778;2023-10-13T13:56:44;1.20;;;1.20;;
19551;SDS011;9921;47.186;9.778;2023-10-13T13:59:13;1.27;;;1.27;;
19551;SDS011;9921;47.186;9.778;2023-10-13T14:01:46;1.42;;;1.42;;
19551;SDS011;9921;47.186;9.778;2023-10-13T14:04:13;1.60;;;1.60;;
19551;SDS011;9921;47.186;9.778;2023-10-13T14:06:43;1.40;;;1.40;;
19551;SDS011;9921;47.186;9.778;2023-10-13T14:09:11;1.20;;;1.20;;
19551;SDS011;9921;47.186;9.778;2023-10-13T14:11:41;1.13;;;1.13;;
19551;SDS011;9921;47.186;9.778;2023-10-13T14:14:25;1.40;;;1.40;;
19551;SDS011;9921;47.186;9.778;2023-10-13T14:17:00;1.20;;;1.20;;
19551;SDS011;9921;47.186;9.778;2023-10-13T14:19:33;1.40;;;1.40;;
19551;SDS011;9921;47.186;9.778;2023-10-13T14:22:05;1.20;;;1.20;;
19551;SDS011;9921;47.186;9.778;2023-10-13T14:24:33;1.23;;;1.23;;
19551;SDS011;9921;47.186;9.778;2023-10-13T14:27:08;1.05;;;1.05;;
19551;SDS011;9921;47.186;9.778;2023-10-13T14:29:37;1.00;;;1.00;;
19551;SDS011;9921;47.186;9.778;2023-10-13T14:32:08;1.10;;;1.10;;
19551;SDS011;9921;47.186;9.778;2023-10-13T14:34:38;1.10;;;1.10;;
19551;SDS011;9921;47.186;9.778;2023-10-13T14:37:05;1.15;;;1.15;;
19551;SDS011;9921;47.186;9.778;2023-10-13T14:39:32;0.90;;;0.90;;
19551;SDS011;9921;47.186;9.778;2023-10-13T14:42:02;0.90;;;0.90;;
19551;SDS011;9921;47.186;9.778;2023-10-13T14:44:31;0.80;;;0.80;;
19551;SDS011;9921;47.186;9.778;2023-10-13T14:46:58;0.70;;;0.70;;
19551;SDS011;9921;47.186;9.778;2023-10-13T14:49:27;0.70;;;0.70;;
19551;SDS011;9921;47.186;9.778;2023-10-13T14:51:54;0.65;;;0.65;;
19551;SDS011;9921;47.186;9.778;2023-10-13T14:54:21;0.60;;;0.60;;
19551;SDS011;9921;47.186;9.778;2023-10-13T14:56:58;0.60;;;0.60;;
19551;SDS011;9921;47.186;9.778;2023-10-13T14:59:25;0.60;;;0.60;;
19551;SDS011;9921;47.186;9.778;2023-10-13T15:01:58;0.50;;;0.50;;
19551;SDS011;9921;47.186;9.778;2023-10-13T15:04:27;0.60;;;0.60;;
19551;SDS011;9921;47.186;9.778;2023-10-13T15:06:57;0.50;;;0.50;;
19551;SDS011;9921;47.186;9.778;2023-10-13T15:09:26;0.40;;;0.40;;
19551;SDS011;9921;47.186;9.778;2023-10-13T15:11:53;0.40;;;0.40;;
19551;SDS011;9921;47.186;9.778;2023-10-13T15:14:20;0.40;;;0.40;;
19551;SDS011;9921;47.186;9.778;2023-10-13T15:16:48;0.30;;;0.30;;
19551;SDS011;9921;47.186;9.778;2023-10-13T15:19:15;0.25;;;0.25;;
19551;SDS011;9921;47.186;9.778;2023-10-13T15:21:43;0.20;;;0.20;;
19551;SDS011;9921;47.186;9.778;2023-10-13T15:24:15;0.10;;;0.10;;
19551;SDS011;9921;47.186;9.778;2023-10-13T15:26:42;0.20;;;0.20;;
19551;SDS011;9921;47.186;9.778;2023-10-13T15:29:12;0.10;;;0.10;;
19551;SDS011;9921;47.186;9.778;2023-10-13T15:31:41;0.10;;;0.10;;
19551;SDS011;9921;47.186;9.778;2023-10-13T15:34:19;0.10;;;0.10;;
19551;SDS011;9921;47.186;9.778;2023-10-13T15:36:49;0.10;;;0.10;;
19551;SDS011;9921;47.186;9.778;2023-10-13T15:39:20;0.10;;;0.10;;
19551;SDS011;9921;47.186;9.778;2023-10-13T15:41:50;0.10;;;0.10;;